createdAt,value
2022-08-25T00:01:38.274Z,17.50
2022-08-25T00:04:10.849Z,17.80
2022-08-25T00:06:39.960Z,17.30
2022-08-25T00:09:08.471Z,17.40
2022-08-25T00:11:38.075Z,17.80
2022-08-25T00:14:09.308Z,17.30
2022-08-25T00:16:36.052Z,18.00
2022-08-25T00:19:07.879Z,17.30
2022-08-25T00:21:34.770Z,16.70
2022-08-25T00:24:02.816Z,16.90
2022-08-25T00:26:30.685Z,16.80
2022-08-25T00:29:01.962Z,16.70
2022-08-25T00:31:37.649Z,17.30
2022-08-25T00:34:10.224Z,16.90
2022-08-25T00:36:38.588Z,16.70
2022-08-25T00:39:07.336Z,16.80
2022-08-25T00:41:35.559Z,16.90
2022-08-25T00:44:08.281Z,16.70
2022-08-25T00:46:42.359Z,17.00
2022-08-25T00:49:24.553Z,17.30
2022-08-25T00:51:58.672Z,17.00
2022-08-25T00:54:29.495Z,17.10
2022-08-25T00:56:58.654Z,17.40
2022-08-25T00:59:27.082Z,17.60
2022-08-25T01:01:55.180Z,17.30
2022-08-25T01:04:21.956Z,17.20
2022-08-25T01:06:49.316Z,17.10
2022-08-25T01:09:18.455Z,17.60
2022-08-25T01:11:46.910Z,16.80
2022-08-25T01:14:17.093Z,16.90
2022-08-25T01:16:44.292Z,16.90
2022-08-25T01:19:15.339Z,16.80
2022-08-25T01:21:45.316Z,16.90
2022-08-25T01:24:28.534Z,17.00
2022-08-25T01:26:55.332Z,17.20
2022-08-25T01:29:22.165Z,16.90
2022-08-25T01:31:51.036Z,17.20
2022-08-25T01:34:19.480Z,16.80
2022-08-25T01:36:46.282Z,17.00
2022-08-25T01:39:13.966Z,16.70
2022-08-25T01:42:09.530Z,16.70
2022-08-25T01:44:39.950Z,16.60
2022-08-25T01:47:07.656Z,16.60
2022-08-25T01:49:35.499Z,16.70
2022-08-25T01:52:11.249Z,16.50
2022-08-25T01:54:39.416Z,16.40
2022-08-25T01:57:06.432Z,16.90
2022-08-25T01:59:33.153Z,16.60
2022-08-25T02:02:00.344Z,16.50
2022-08-25T02:04:32.266Z,16.50
2022-08-25T02:07:00.885Z,17.10
2022-08-25T02:09:28.083Z,16.90
2022-08-25T02:11:56.700Z,16.30
2022-08-25T02:14:23.673Z,16.20
2022-08-25T02:16:52.539Z,16.30
2022-08-25T02:19:20.833Z,16.30
2022-08-25T02:21:47.884Z,16.30
2022-08-25T02:24:14.751Z,16.50
2022-08-25T02:26:42.246Z,16.10
2022-08-25T02:29:10.329Z,16.00
2022-08-25T02:31:37.953Z,16.70
2022-08-25T02:34:05.583Z,16.60
2022-08-25T02:36:33.125Z,16.30
2022-08-25T02:39:00.644Z,17.10
2022-08-25T02:41:31.238Z,16.30
2022-08-25T02:43:59.226Z,16.80
2022-08-25T02:46:26.093Z,16.30
2022-08-25T02:48:53.621Z,16.60
2022-08-25T02:51:23.397Z,16.50
2022-08-25T02:53:50.630Z,16.70
2022-08-25T02:56:19.432Z,16.50
2022-08-25T02:58:46.747Z,16.50
2022-08-25T03:01:15.118Z,16.70
2022-08-25T03:03:44.643Z,16.10
2022-08-25T03:06:14.254Z,15.90
2022-08-25T03:08:42.229Z,16.20
2022-08-25T03:11:10.000Z,16.40
2022-08-25T03:13:37.300Z,16.40
2022-08-25T03:16:10.884Z,16.60
2022-08-25T03:18:40.438Z,15.90
2022-08-25T03:21:08.618Z,16.60
2022-08-25T03:23:35.736Z,16.70
2022-08-25T03:26:21.221Z,15.90
2022-08-25T03:28:47.928Z,15.70
2022-08-25T03:31:14.835Z,16.00
2022-08-25T03:33:42.088Z,16.00
2022-08-25T03:36:09.274Z,16.20
2022-08-25T03:38:38.223Z,16.20
2022-08-25T03:41:17.166Z,16.00
2022-08-25T03:43:44.999Z,16.00
2022-08-25T03:46:26.753Z,16.00
2022-08-25T03:48:53.954Z,16.40
2022-08-25T03:51:40.497Z,15.70
2022-08-25T03:54:10.413Z,15.90
2022-08-25T03:56:38.346Z,15.90
2022-08-25T03:59:06.036Z,16.00
2022-08-25T04:01:32.905Z,16.50
2022-08-25T04:03:59.756Z,16.20
2022-08-25T04:06:26.497Z,15.90
2022-08-25T04:08:53.792Z,16.20
2022-08-25T04:11:22.790Z,16.40
2022-08-25T04:13:52.159Z,16.00
2022-08-25T04:16:23.432Z,15.90
2022-08-25T04:18:51.184Z,16.00
2022-08-25T04:21:20.342Z,16.40
2022-08-25T04:23:51.518Z,16.20
2022-08-25T04:26:21.691Z,16.10
2022-08-25T04:28:49.527Z,17.10
2022-08-25T04:31:17.638Z,16.40
2022-08-25T04:33:48.041Z,17.00
2022-08-25T04:36:17.252Z,15.90
2022-08-25T04:38:45.113Z,16.20
2022-08-25T04:41:13.632Z,15.50
2022-08-25T04:43:42.162Z,15.20
2022-08-25T04:46:20.241Z,15.20
2022-08-25T04:48:51.836Z,15.30
2022-08-25T04:51:23.310Z,15.70
2022-08-25T04:53:50.684Z,16.00
2022-08-25T04:56:26.134Z,15.60
2022-08-25T04:58:54.295Z,16.80
2022-08-25T05:01:24.586Z,16.20
2022-08-25T05:04:00.392Z,16.20
2022-08-25T05:06:28.809Z,16.50
2022-08-25T05:08:57.219Z,15.90
2022-08-25T05:11:25.787Z,16.20
2022-08-25T05:13:54.950Z,16.20
2022-08-25T05:16:24.212Z,16.30
2022-08-25T05:18:51.906Z,16.20
2022-08-25T05:21:22.241Z,16.50
2022-08-25T05:23:49.802Z,16.30
2022-08-25T05:26:21.786Z,16.10
2022-08-25T05:28:50.882Z,16.30
2022-08-25T05:31:18.478Z,16.40
2022-08-25T05:33:45.511Z,16.60
2022-08-25T05:36:14.424Z,16.30
2022-08-25T05:38:41.900Z,16.20
2022-08-25T05:41:12.961Z,16.30
2022-08-25T05:43:41.308Z,16.50
2022-08-25T05:46:09.182Z,16.80
2022-08-25T05:48:36.616Z,17.30
2022-08-25T05:51:05.924Z,16.70
2022-08-25T05:53:34.216Z,16.80
2022-08-25T05:56:01.790Z,17.50
2022-08-25T05:58:29.129Z,17.10
2022-08-25T06:00:57.224Z,17.10
2022-08-25T06:03:24.154Z,17.10
2022-08-25T06:05:51.087Z,17.10
2022-08-25T06:08:17.771Z,17.70
2022-08-25T06:10:44.466Z,17.10
2022-08-25T06:13:11.175Z,17.20
2022-08-25T06:15:39.120Z,17.60
2022-08-25T06:18:06.064Z,17.30
2022-08-25T06:20:33.157Z,17.40
2022-08-25T06:22:59.994Z,17.40
2022-08-25T06:25:27.369Z,18.20
2022-08-25T06:27:55.354Z,18.40
2022-08-25T06:30:28.941Z,17.90
2022-08-25T06:32:57.064Z,17.90
2022-08-25T06:35:24.095Z,17.90
2022-08-25T06:37:50.880Z,18.30
2022-08-25T06:40:17.775Z,18.60
2022-08-25T06:42:48.784Z,18.10
2022-08-25T06:45:15.899Z,18.60
2022-08-25T06:47:43.007Z,18.40
2022-08-25T06:50:12.780Z,18.50
2022-08-25T06:52:39.529Z,18.90
2022-08-25T06:55:06.827Z,18.60
2022-08-25T06:57:35.860Z,18.80
2022-08-25T07:00:08.178Z,19.00
2022-08-25T07:02:35.184Z,19.00
2022-08-25T07:05:02.979Z,19.10
2022-08-25T07:07:43.041Z,19.20
2022-08-25T07:10:10.958Z,19.20
2022-08-25T07:12:37.716Z,19.40
2022-08-25T07:15:19.551Z,19.40
2022-08-25T07:17:47.352Z,19.50
2022-08-25T07:20:17.005Z,19.60
2022-08-25T07:22:46.236Z,19.70
2022-08-25T07:25:12.955Z,19.80
2022-08-25T07:27:42.387Z,19.80
2022-08-25T07:30:11.342Z,19.80
2022-08-25T07:32:42.242Z,19.80
2022-08-25T07:35:19.139Z,20.00
2022-08-25T07:37:58.105Z,20.00
2022-08-25T07:40:29.255Z,20.00
2022-08-25T07:42:58.612Z,20.20
2022-08-25T07:45:31.729Z,20.30
2022-08-25T07:48:01.517Z,20.30
2022-08-25T07:50:29.748Z,20.30
2022-08-25T07:52:57.582Z,20.40
2022-08-25T07:55:26.150Z,20.50
2022-08-25T07:57:57.055Z,20.60
2022-08-25T08:00:28.007Z,20.70
2022-08-25T08:02:55.398Z,21.00
2022-08-25T08:05:23.810Z,20.80
2022-08-25T08:07:51.323Z,20.90
2022-08-25T08:11:00.497Z,20.90
2022-08-25T08:13:07.413Z,21.00
2022-08-25T08:15:35.494Z,21.00
2022-08-25T08:18:03.113Z,21.10
2022-08-25T08:20:42.469Z,21.10
2022-08-25T08:23:10.616Z,21.20
2022-08-25T08:25:37.580Z,21.20
2022-08-25T08:28:04.342Z,21.30
2022-08-25T08:30:36.525Z,21.40
2022-08-25T08:33:12.920Z,21.50
2022-08-25T08:35:42.089Z,21.50
2022-08-25T08:38:14.612Z,21.50
2022-08-25T08:41:24.439Z,21.60
2022-08-25T08:43:59.616Z,21.70
2022-08-25T08:46:36.434Z,21.70
2022-08-25T08:49:10.760Z,21.90
2022-08-25T08:51:53.329Z,21.90
2022-08-25T08:54:27.660Z,22.00
2022-08-25T08:57:12.583Z,22.00
2022-08-25T09:00:02.222Z,22.00
2022-08-25T09:02:49.727Z,22.10
2022-08-25T09:05:20.942Z,22.10
2022-08-25T09:08:10.640Z,22.20
2022-08-25T09:11:10.346Z,22.30
2022-08-25T09:14:05.341Z,22.40
2022-08-25T09:16:57.664Z,22.60
2022-08-25T09:19:32.072Z,22.60
2022-08-25T09:22:33.901Z,22.60
2022-08-25T09:25:29.498Z,22.70
2022-08-25T09:28:38.277Z,22.80
2022-08-25T09:31:17.562Z,22.80
2022-08-25T09:33:45.023Z,22.90
2022-08-25T09:36:13.799Z,23.10
2022-08-25T09:38:41.579Z,23.10
2022-08-25T09:41:08.849Z,23.20
2022-08-25T09:43:40.395Z,23.30
2022-08-25T09:46:10.601Z,23.50
2022-08-25T09:48:56.127Z,23.50
2022-08-25T09:51:42.324Z,23.50
2022-08-25T09:54:12.796Z,23.50
2022-08-25T09:56:57.692Z,23.50
2022-08-25T09:59:35.154Z,23.50
2022-08-25T10:02:15.059Z,23.50
2022-08-25T10:04:42.826Z,23.60
2022-08-25T10:07:51.777Z,23.70
2022-08-25T10:10:24.532Z,23.80
2022-08-25T10:12:51.738Z,23.90
2022-08-25T10:15:29.743Z,24.10
2022-08-25T10:18:17.988Z,24.10
2022-08-25T10:21:00.565Z,24.10
2022-08-25T10:23:27.741Z,24.10
2022-08-25T10:26:04.567Z,24.00
2022-08-25T10:28:57.117Z,24.00
2022-08-25T10:31:34.725Z,23.90
2022-08-25T10:34:37.295Z,24.00
2022-08-25T10:37:10.820Z,24.00
2022-08-25T10:39:42.222Z,24.00
2022-08-25T10:42:17.991Z,24.00
2022-08-25T10:45:29.621Z,24.00
2022-08-25T10:48:12.961Z,23.90
2022-08-25T10:50:58.464Z,23.90
2022-08-25T10:53:34.470Z,23.90
2022-08-25T10:56:18.357Z,23.90
2022-08-25T10:58:59.911Z,23.90
2022-08-25T11:01:53.639Z,23.90
2022-08-25T11:04:29.940Z,23.90
2022-08-25T11:07:05.754Z,24.00
2022-08-25T11:09:39.309Z,24.00
2022-08-25T11:12:33.490Z,24.20
2022-08-25T11:15:08.526Z,24.40
2022-08-25T11:17:50.374Z,24.50
2022-08-25T11:20:26.731Z,24.60
2022-08-25T11:23:09.630Z,24.70
2022-08-25T11:25:46.028Z,24.60
2022-08-25T11:28:50.735Z,24.80
2022-08-25T11:31:19.865Z,25.00
2022-08-25T11:33:46.731Z,25.10
2022-08-25T11:36:20.665Z,25.20
2022-08-25T11:39:13.312Z,25.20
2022-08-25T11:42:14.925Z,25.10
2022-08-25T11:44:53.697Z,25.00
2022-08-25T11:47:58.593Z,25.00
2022-08-25T11:50:55.290Z,24.90
2022-08-25T11:53:39.144Z,25.00
2022-08-25T11:56:12.837Z,25.10
2022-08-25T11:58:44.055Z,25.10
2022-08-25T12:01:31.505Z,25.10
2022-08-25T12:04:44.418Z,25.20
2022-08-25T12:07:16.892Z,25.10
2022-08-25T12:09:51.421Z,25.20
2022-08-25T12:12:36.052Z,25.30
2022-08-25T12:15:25.357Z,25.40
2022-08-25T12:18:13.404Z,25.50
2022-08-25T12:20:56.326Z,25.60
2022-08-25T12:23:37.770Z,25.60
2022-08-25T12:26:30.398Z,25.70
2022-08-25T12:29:07.951Z,25.70
2022-08-25T12:32:07.055Z,25.80
2022-08-25T12:34:51.149Z,25.90
2022-08-25T12:37:20.749Z,26.00
2022-08-25T12:39:51.125Z,26.10
2022-08-25T12:42:43.389Z,26.30
2022-08-25T12:45:33.245Z,26.20
2022-08-25T12:48:28.863Z,26.20
2022-08-25T12:51:18.431Z,26.30
2022-08-25T12:53:50.966Z,26.20
2022-08-25T12:56:24.474Z,26.30
2022-08-25T12:59:22.163Z,26.50
2022-08-25T13:02:19.125Z,26.80
2022-08-25T13:05:20.287Z,26.30
2022-08-25T13:08:14.112Z,26.40
2022-08-25T13:10:50.371Z,26.60
2022-08-25T13:13:47.791Z,26.90
2022-08-25T13:16:28.903Z,27.20
2022-08-25T13:18:59.443Z,27.20
2022-08-25T13:21:44.326Z,27.20
2022-08-25T13:24:29.843Z,27.50
2022-08-25T13:27:07.702Z,27.70
2022-08-25T13:29:40.708Z,27.80
2022-08-25T13:32:13.072Z,27.90
2022-08-25T13:34:43.127Z,28.00
2022-08-25T13:37:29.558Z,28.00
2022-08-25T13:40:17.632Z,27.80
2022-08-25T13:42:55.999Z,27.50
2022-08-25T13:45:31.886Z,27.80
2022-08-25T13:47:59.117Z,28.70
2022-08-25T13:50:26.807Z,29.00
2022-08-25T13:52:56.924Z,29.40
2022-08-25T13:55:28.641Z,30.50
2022-08-25T13:57:58.192Z,31.10
2022-08-25T14:00:43.191Z,32.40
2022-08-25T14:03:31.304Z,33.20
2022-08-25T14:06:15.221Z,34.50
2022-08-25T14:08:55.435Z,35.20
2022-08-25T14:11:30.654Z,35.80
2022-08-25T14:14:03.089Z,35.80
2022-08-25T14:16:57.440Z,35.20
2022-08-25T14:19:25.224Z,35.20
2022-08-25T14:21:56.655Z,36.80
2022-08-25T14:24:24.371Z,37.40
2022-08-25T14:26:53.839Z,38.20
2022-08-25T14:29:22.180Z,37.90
2022-08-25T14:31:49.662Z,37.70
2022-08-25T14:34:22.922Z,37.50
2022-08-25T14:36:51.453Z,38.50
2022-08-25T14:39:18.898Z,37.90
2022-08-25T14:41:53.199Z,38.00
2022-08-25T14:44:21.012Z,39.20
2022-08-25T14:46:54.241Z,40.40
2022-08-25T14:49:29.792Z,40.20
2022-08-25T14:51:57.771Z,39.70
2022-08-25T14:54:27.402Z,40.10
2022-08-25T14:56:54.338Z,39.50
2022-08-25T14:59:22.091Z,39.70
2022-08-25T15:01:50.178Z,37.50
2022-08-25T15:04:26.602Z,36.90
2022-08-25T15:06:58.883Z,37.20
2022-08-25T15:09:26.287Z,38.10
2022-08-25T15:12:00.455Z,37.90
2022-08-25T15:14:29.164Z,37.90
2022-08-25T15:17:01.741Z,37.30
2022-08-25T15:19:29.022Z,37.00
2022-08-25T15:21:58.086Z,37.10
2022-08-25T15:24:27.973Z,36.90
2022-08-25T15:27:00.772Z,37.00
2022-08-25T15:29:30.160Z,37.40
2022-08-25T15:31:58.098Z,37.10
2022-08-25T15:34:24.996Z,37.20
2022-08-25T15:36:52.275Z,37.30
2022-08-25T15:39:19.902Z,36.40
2022-08-25T15:41:49.397Z,36.00
2022-08-25T15:44:16.789Z,37.30
2022-08-25T15:46:49.681Z,36.40
2022-08-25T15:49:20.306Z,36.50
2022-08-25T15:51:50.803Z,36.70
2022-08-25T15:54:17.527Z,36.90
2022-08-25T15:56:44.534Z,35.80
2022-08-25T15:59:13.584Z,36.00
2022-08-25T16:01:53.449Z,35.50
2022-08-25T16:04:22.241Z,36.10
2022-08-25T16:06:50.744Z,36.50
2022-08-25T16:09:18.278Z,36.40
2022-08-25T16:11:56.904Z,35.50
2022-08-25T16:14:24.843Z,34.70
2022-08-25T16:16:52.598Z,34.00
2022-08-25T16:19:19.420Z,33.20
2022-08-25T16:21:47.532Z,32.40
2022-08-25T16:24:14.862Z,31.70
2022-08-25T16:26:48.284Z,31.80
2022-08-25T16:29:15.797Z,31.50
2022-08-25T16:31:43.803Z,31.10
2022-08-25T16:34:10.750Z,30.90
2022-08-25T16:36:39.512Z,30.70
2022-08-25T16:39:09.875Z,30.30
2022-08-25T16:41:37.350Z,30.30
2022-08-25T16:44:11.219Z,30.40
2022-08-25T16:46:38.993Z,30.30
2022-08-25T16:49:07.815Z,30.20
2022-08-25T16:51:35.851Z,29.90
2022-08-25T16:54:22.180Z,29.60
2022-08-25T16:56:54.917Z,29.40
2022-08-25T16:59:23.526Z,29.10
2022-08-25T17:01:51.690Z,28.90
2022-08-25T17:04:18.537Z,28.80
2022-08-25T17:06:49.384Z,28.80
2022-08-25T17:09:23.953Z,28.80
2022-08-25T17:11:56.553Z,28.70
2022-08-25T17:14:23.845Z,28.50
2022-08-25T17:16:54.563Z,28.30
2022-08-25T17:19:21.640Z,28.00
2022-08-25T17:21:51.000Z,27.90
2022-08-25T17:24:17.993Z,27.80
2022-08-25T17:26:47.238Z,27.60
2022-08-25T17:29:13.974Z,27.50
2022-08-25T17:31:42.892Z,27.20
2022-08-25T17:34:16.513Z,26.90
2022-08-25T17:36:43.979Z,26.80
2022-08-25T17:39:12.896Z,26.50
2022-08-25T17:41:43.024Z,26.30
2022-08-25T17:44:09.817Z,26.20
2022-08-25T17:46:39.098Z,26.00
2022-08-25T17:49:11.811Z,25.60
2022-08-25T17:51:38.636Z,25.10
2022-08-25T17:54:05.584Z,25.00
2022-08-25T17:56:33.392Z,24.90
2022-08-25T17:59:00.322Z,24.90
2022-08-25T18:01:30.457Z,24.70
2022-08-25T18:03:59.157Z,24.50
2022-08-25T18:06:29.394Z,24.30
2022-08-25T18:09:00.043Z,24.20
2022-08-25T18:11:28.696Z,24.00
2022-08-25T18:13:56.089Z,23.90
2022-08-25T18:16:23.701Z,23.70
2022-08-25T18:18:52.848Z,23.70
2022-08-25T18:21:22.413Z,23.70
2022-08-25T18:23:49.580Z,23.60
2022-08-25T18:26:16.325Z,23.60
2022-08-25T18:28:43.963Z,23.40
2022-08-25T18:31:13.227Z,23.30
2022-08-25T18:33:44.774Z,23.20
2022-08-25T18:36:13.230Z,23.00
2022-08-25T18:38:59.961Z,23.00
2022-08-25T18:41:32.764Z,22.90
2022-08-25T18:43:59.492Z,22.80
2022-08-25T18:46:26.302Z,22.80
2022-08-25T18:48:53.248Z,22.70
2022-08-25T18:51:22.866Z,22.70
2022-08-25T18:53:54.447Z,22.60
2022-08-25T18:56:26.787Z,22.60
2022-08-25T18:58:53.513Z,22.60
2022-08-25T19:01:20.608Z,22.60
2022-08-25T19:03:48.667Z,22.40
2022-08-25T19:06:16.445Z,22.20
2022-08-25T19:08:43.594Z,22.20
2022-08-25T19:11:10.824Z,22.10
2022-08-25T19:13:38.233Z,22.10
2022-08-25T19:16:17.832Z,22.00
2022-08-25T19:18:48.941Z,22.00
2022-08-25T19:21:22.662Z,22.00
2022-08-25T19:23:50.782Z,22.00
2022-08-25T19:26:18.427Z,22.10
2022-08-25T19:28:49.339Z,22.00
2022-08-25T19:31:18.952Z,21.90
2022-08-25T19:33:50.866Z,21.70
2022-08-25T19:36:23.081Z,21.50
2022-08-25T19:38:52.289Z,21.60
2022-08-25T19:41:20.707Z,21.70
2022-08-25T19:43:56.172Z,21.80
2022-08-25T19:46:33.370Z,21.80
2022-08-25T19:49:09.324Z,21.60
2022-08-25T19:51:38.646Z,21.40
2022-08-25T19:54:06.891Z,21.40
2022-08-25T19:56:36.494Z,21.40
2022-08-25T19:59:04.264Z,21.40
2022-08-25T20:01:31.595Z,21.30
2022-08-25T20:03:58.422Z,21.20
2022-08-25T20:06:27.734Z,21.10
2022-08-25T20:08:59.087Z,20.90
2022-08-25T20:11:29.188Z,20.80
2022-08-25T20:13:59.294Z,20.80
2022-08-25T20:16:30.102Z,20.60
2022-08-25T20:18:56.991Z,20.80
2022-08-25T20:21:26.402Z,20.60
2022-08-25T20:24:11.579Z,20.60
2022-08-25T20:26:38.695Z,20.20
2022-08-25T20:29:11.256Z,20.00
2022-08-25T20:31:39.164Z,19.90
2022-08-25T20:34:06.541Z,20.00
2022-08-25T20:36:33.597Z,20.00
2022-08-25T20:39:00.308Z,20.10
2022-08-25T20:41:27.083Z,20.20
2022-08-25T20:43:53.859Z,20.20
2022-08-25T20:46:22.482Z,20.10
2022-08-25T20:48:49.231Z,19.90
2022-08-25T20:51:15.939Z,19.80
2022-08-25T20:53:45.661Z,19.70
2022-08-25T20:56:15.680Z,19.90
2022-08-25T20:58:43.012Z,19.60
2022-08-25T21:01:20.342Z,19.70
2022-08-25T21:03:50.554Z,19.90
2022-08-25T21:06:17.743Z,19.70
2022-08-25T21:08:46.726Z,19.70
2022-08-25T21:11:22.720Z,19.90
2022-08-25T21:13:49.574Z,19.80
2022-08-25T21:16:17.885Z,19.70
2022-08-25T21:18:48.131Z,19.80
2022-08-25T21:21:16.597Z,19.80
2022-08-25T21:23:45.649Z,20.00
2022-08-25T21:26:15.408Z,19.50
2022-08-25T21:28:47.556Z,19.30
2022-08-25T21:31:16.186Z,19.30
2022-08-25T21:33:46.051Z,19.30
2022-08-25T21:36:16.764Z,19.20
2022-08-25T21:38:47.283Z,19.10
2022-08-25T21:41:21.290Z,19.60
2022-08-25T21:43:49.888Z,19.10
2022-08-25T21:46:20.194Z,18.90
2022-08-25T21:48:47.430Z,19.00
2022-08-25T21:51:18.424Z,18.70
2022-08-25T21:53:46.300Z,18.90
2022-08-25T21:56:17.346Z,18.80
2022-08-25T21:58:49.097Z,18.90
2022-08-25T22:01:19.981Z,19.10
2022-08-25T22:03:47.511Z,19.20
2022-08-25T22:06:15.200Z,19.50
2022-08-25T22:08:43.642Z,19.20
2022-08-25T22:11:10.819Z,19.10
2022-08-25T22:13:41.182Z,19.20
2022-08-25T22:16:10.466Z,18.90
2022-08-25T22:18:37.427Z,18.90
2022-08-25T22:21:07.189Z,19.00
2022-08-25T22:23:44.587Z,18.80
2022-08-25T22:26:15.214Z,18.80
2022-08-25T22:28:44.118Z,19.00
2022-08-25T22:31:14.146Z,18.80
2022-08-25T22:33:48.117Z,18.90
2022-08-25T22:36:20.362Z,18.60
2022-08-25T22:38:47.395Z,18.80
2022-08-25T22:41:19.139Z,18.90
2022-08-25T22:43:51.179Z,18.90
2022-08-25T22:46:22.105Z,19.00
2022-08-25T22:48:51.558Z,19.00
2022-08-25T22:51:24.459Z,19.10
2022-08-25T22:53:51.721Z,19.20
2022-08-25T22:56:29.659Z,19.40
2022-08-25T22:59:02.667Z,19.30
2022-08-25T23:01:30.251Z,19.40
2022-08-25T23:03:57.724Z,19.00
2022-08-25T23:06:25.247Z,18.90
2022-08-25T23:08:53.983Z,18.90
2022-08-25T23:11:23.949Z,19.00
2022-08-25T23:13:50.985Z,18.50
2022-08-25T23:16:18.365Z,18.30
2022-08-25T23:18:46.835Z,18.40
2022-08-25T23:21:37.957Z,18.60
2022-08-25T23:24:08.822Z,19.10
2022-08-25T23:26:42.553Z,18.50
2022-08-25T23:29:18.807Z,18.40
2022-08-25T23:31:47.597Z,18.50
2022-08-25T23:34:15.533Z,18.50
2022-08-25T23:36:43.878Z,18.60
2022-08-25T23:39:10.997Z,18.30
2022-08-25T23:41:37.805Z,18.50
2022-08-25T23:44:05.490Z,18.30
2022-08-25T23:46:34.850Z,18.20
2022-08-25T23:49:02.830Z,18.30
2022-08-25T23:51:37.166Z,18.30
2022-08-25T23:54:09.427Z,18.40
2022-08-25T23:56:42.471Z,18.40
2022-08-25T23:59:14.353Z,18.40
